Nyk Constellation — V7NP4 — position and weather

sailwx.info

Track history (hours):
 
Tides and Currents Weather Stations Pressure Air Temp Water Temp Dewpoint Dewpoint Depression Visibility Wind Speed Wind Dir Waves Ship Positions

Nyk Constellation

Last reported at 2014-Jul-31 12:15 UTC. Time now 2014-Jul-31 13:27 UTC.
Position N 47°16' W 122°23'.

Length 294 m; draft 11.3 m.

Type: Cargo ship. MMSI: 538002992.

Date/timePositionNaut miles runAvg speedWind from/ knotsBaromVisibWave heightAir tempDewpointWater temp
2014-Jul-31 12:15N 47°16' W 122°23'0 0.0
2014-Jul-31 11:30N 47°16' W 122°23'0 0.0
2014-Jul-31 10:12N 47°16' W 122°23'0 0.0
2014-Jul-31 09:12N 47°16' W 122°23'0 0.0
2014-Jul-31 08:27N 47°16' W 122°23'0 0.0
2014-Jul-31 07:27N 47°16' W 122°23'0 0.0
2014-Jul-31 06:30N 47°16' W 122°23'0 0.0
2014-Jul-31 04:32N 47°16' W 122°23'0 0.0
2014-Jul-31 03:33N 47°16' W 122°23'0 0.0
2014-Jul-31 02:33N 47°16' W 122°23'0 0.0
2014-Jul-31 01:33N 47°16' W 122°23'0 0.0
2014-Jul-31 00:33N 47°16' W 122°23'3 3.2
2014-Jul-30 23:33N 47°18' W 122°27'2 2.0
2014-Jul-30 22:34N 47°20' W 122°28'1111.1
2014-Jul-30 21:33N 47°31' W 122°26'1515.0
2014-Jul-30 20:33N 47°46' W 122°27'1616.3
2014-Jul-30 19:33N 48°00' W 122°37'1514.7
2014-Jul-30 18:33N 48°11' W 122°52'1616.3
2014-Jul-30 17:33N 48°12' W 123°17'10 9.8
2014-Jul-30 16:33N 48°13' W 123°31'1515.3
2014-Jul-30 15:33N 48°13' W 123°54'1616.5
2014-Jul-30 14:34N 48°20' W 124°17'1716.7
2014-Jul-30 13:34N 48°27' W 124°39'1717.1
2014-Jul-30 12:33N 48°28' W 125°05'1717.5
2014-Jul-30 11:34N 48°31' W 125°31'1717.4
2014-Jul-30 10:33N 48°38' W 125°56'1818.0
2014-Jul-30 09:34N 48°44' W 126°21'1817.8
2014-Jul-30 08:33N 48°51' W 126°46'1817.8
2014-Jul-30 07:33N 48°57' W 127°11'1818.0
2014-Jul-30 06:34N 49°04' W 127°37'1817.8
2014-Jul-30 05:32N 49°11' W 128°03'  
Track history (hours):
 
Tides and Currents Weather Stations Pressure Air Temp Water Temp Dewpoint Dewpoint Depression Visibility Wind Speed Wind Dir Waves Ship Positions

Nyk Constellation

Last reported at 2014-Jul-31 12:15 UTC. Time now 2014-Jul-31 13:27 UTC.
Position N 47°16' W 122°23'.

Length 294 m; draft 11.3 m.

Type: Cargo ship. MMSI: 538002992.

Date/timePositionNaut miles runAvg speedWind from/ knotsBaromVisibWave heightAir tempDewpointWater temp
2014-Jul-31 12:15N 47°16' W 122°23'0 0.0
2014-Jul-31 11:30N 47°16' W 122°23'0 0.0
2014-Jul-31 10:12N 47°16' W 122°23'0 0.0
2014-Jul-31 09:12N 47°16' W 122°23'0 0.0
2014-Jul-31 08:27N 47°16' W 122°23'0 0.0
2014-Jul-31 07:27N 47°16' W 122°23'0 0.0
2014-Jul-31 06:30N 47°16' W 122°23'0 0.0
2014-Jul-31 04:32N 47°16' W 122°23'0 0.0
2014-Jul-31 03:33N 47°16' W 122°23'0 0.0
2014-Jul-31 02:33N 47°16' W 122°23'0 0.0
2014-Jul-31 01:33N 47°16' W 122°23'0 0.0
2014-Jul-31 00:33N 47°16' W 122°23'3 3.2
2014-Jul-30 23:33N 47°18' W 122°27'2 2.0
2014-Jul-30 22:34N 47°20' W 122°28'1111.1
2014-Jul-30 21:33N 47°31' W 122°26'1515.0
2014-Jul-30 20:33N 47°46' W 122°27'1616.3
2014-Jul-30 19:33N 48°00' W 122°37'1514.7
2014-Jul-30 18:33N 48°11' W 122°52'1616.3
2014-Jul-30 17:33N 48°12' W 123°17'10 9.8
2014-Jul-30 16:33N 48°13' W 123°31'1515.3
2014-Jul-30 15:33N 48°13' W 123°54'1616.5
2014-Jul-30 14:34N 48°20' W 124°17'1716.7
2014-Jul-30 13:34N 48°27' W 124°39'1717.1
2014-Jul-30 12:33N 48°28' W 125°05'1717.5
2014-Jul-30 11:34N 48°31' W 125°31'1717.4
2014-Jul-30 10:33N 48°38' W 125°56'1818.0
2014-Jul-30 09:34N 48°44' W 126°21'1817.8
2014-Jul-30 08:33N 48°51' W 126°46'1817.8
2014-Jul-30 07:33N 48°57' W 127°11'1818.0
2014-Jul-30 06:34N 49°04' W 127°37'1817.8
2014-Jul-30 05:32N 49°11' W 128°03'  

Dump ship's entire track history